Commodore Goodwill — C6NU8 — position and weather

sailwx.info

Track history (hours):
 
Tides and Currents Weather Stations Pressure Air Temp Water Temp Dewpoint Dewpoint Depression Visibility Wind Speed Wind Dir Waves Ship Positions

Commodore Goodwill

Operator: Condor Marine Services

Last reported at 2019-May-20 16:00 UTC. Time now 2019-May-20 16:30 UTC.
Position N 50°49' W 001°06'.

Length 126 m; draft 5.2 m.

Type: Ship (hazmat cat C). MMSI: 309536000.

Date/timePositionNaut miles runAvg speedWind from/ knotsBaromVisibWave heightAir tempDewpointWater temp
2019-May-20 16:00N 50°49' W 001°06'0 0.0
2019-May-20 15:30N 50°49' W 001°06'2 3.7
2019-May-20 15:01N 50°47' W 001°06'713.7
2019-May-20 14:31N 50°40' W 001°04'714.0
2019-May-20 14:00N 50°35' W 001°10'612.2
2019-May-20 13:30N 50°30' W 001°16'812.9
2019-May-20 12:55N 50°23' W 001°23'2114.3
2019-May-20 11:27N 50°05' W 001°39'2115.7
2019-May-20 10:05N 49°48' W 001°58'1217.4
2019-May-20 09:24N 49°37' W 002°07'615.8
2019-May-20 09:00N 49°32' W 002°11'918.2
2019-May-20 08:30N 49°23' W 002°16'918.2
2019-May-20 08:00N 49°15' W 002°21'1013.5
2019-May-20 07:15N 49°11' W 002°07'0 0.0
2019-May-20 04:55N 49°11' W 002°07'714.7
2019-May-20 04:28N 49°10' W 002°17'713.1
2019-May-20 03:58N 49°16' W 002°23'613.5
2019-May-20 03:30N 49°21' W 002°26'714.0
2019-May-20 03:00N 49°27' W 002°31'0 0.3
2019-May-20 02:30N 49°27' W 002°32'0 0.0
2019-May-20 02:00N 49°27' W 002°32'4 7.8
2019-May-20 01:30N 49°26' W 002°26'714.5
2019-May-20 01:00N 49°31' W 002°17'611.7
2019-May-20 00:30N 49°34' W 002°09'611.9
2019-May-19 23:59N 49°40' W 002°06'2512.7
2019-May-19 22:00N 50°02' W 001°47'3712.5
2019-May-19 19:03N 50°31' W 001°13'112.5
2019-May-19 19:00N 50°32' W 001°12'712.9
2019-May-19 18:30N 50°37' W 001°07'612.5
2019-May-19 18:01N 50°43' W 001°03'611.7
2019-May-19 17:30N 50°49' W 001°07'1 1.2
2019-May-19 17:00N 50°49' W 001°06'0 0.0
2019-May-19 16:30N 50°49' W 001°06'0 0.0
2019-May-19 16:00N 50°49' W 001°06'0 0.0
2019-May-19 15:30N 50°49' W 001°06'0 0.3
2019-May-19 15:00N 50°49' W 001°06'0 0.1
2019-May-19 14:30N 50°49' W 001°06'0 0.0
2019-May-19 14:00N 50°49' W 001°06'0 0.0
2019-May-19 13:30N 50°49' W 001°06'0 0.0
2019-May-19 13:00N 50°49' W 001°06'0 0.0
2019-May-19 12:30N 50°49' W 001°06'0 0.0
2019-May-19 12:00N 50°49' W 001°06'0 0.0
2019-May-19 11:30N 50°49' W 001°06'0 0.0
2019-May-19 11:00N 50°49' W 001°06'0 0.0
2019-May-19 10:30N 50°49' W 001°06'0 0.0
2019-May-19 10:00N 50°49' W 001°06'0 0.0
2019-May-19 09:30N 50°49' W 001°06'0 0.0
2019-May-19 09:00N 50°49' W 001°06'0 0.0
2019-May-19 08:30N 50°49' W 001°06'0 0.0
2019-May-19 08:00N 50°49' W 001°06'0 0.0
2019-May-19 07:30N 50°49' W 001°06'2 3.6
2019-May-19 07:00N 50°47' W 001°06'714.1
2019-May-19 06:31N 50°40' W 001°04'815.3
2019-May-19 06:00N 50°33' W 001°11'815.1
2019-May-19 05:30N 50°27' W 001°17'5112.3
2019-May-19 01:21N 49°45' W 002°02'2 5.9
2019-May-19 01:01N 49°43' W 002°02'4 7.7
2019-May-19 00:29N 49°39' W 002°05'4 9.1
2019-May-19 00:00N 49°35' W 002°07'5 9.4
2019-May-18 23:30N 49°31' W 002°09'1 2.3
2019-May-18 23:00N 49°31' W 002°08'4 8.6
2019-May-18 22:30N 49°34' W 002°05'1 2.8
2019-May-18 22:00N 49°36' W 002°05'4 7.7
2019-May-18 21:30N 49°34' W 002°09'4 8.9
2019-May-18 21:00N 49°30' W 002°13'5 9.9
2019-May-18 20:30N 49°25' W 002°15'5 9.6
2019-May-18 20:00N 49°20' W 002°18'5 9.7
2019-May-18 19:30N 49°16' W 002°21'4 8.9
2019-May-18 19:00N 49°12' W 002°19'811.9
2019-May-18 18:20N 49°10' W 002°08'1 0.0
2019-May-18 05:15N 49°10' W 002°07'1 2.9
2019-May-18 04:55N 49°10' W 002°08'716.2
2019-May-18 04:30N 49°10' W 002°18'815.3
2019-May-18 04:00N 49°17' W 002°24'713.5
2019-May-18 03:30N 49°23' W 002°27'510.2
2019-May-18 03:00N 49°27' W 002°32'0 0.0
2019-May-18 02:30N 49°27' W 002°32'0 0.0
2019-May-18 02:01N 49°27' W 002°32'4 7.9
2019-May-18 01:31N 49°26' W 002°26'917.5
2019-May-18 01:00N 49°31' W 002°15'814.9
2019-May-18 00:28N 49°37' W 002°06'1017.3
2019-May-17 23:52N 49°47' W 002°01'5315.6
2019-May-17 20:29N 50°29' W 001°12'715.1
2019-May-17 20:00N 50°36' W 001°08'714.7
2019-May-17 19:30N 50°43' W 001°03'611.8
2019-May-17 19:01N 50°48' W 001°07'1 1.9
2019-May-17 18:31N 50°49' W 001°06'0 0.0
2019-May-17 18:00N 50°49' W 001°06'0 0.0
2019-May-17 17:31N 50°49' W 001°06'0 0.0
2019-May-17 17:00N 50°49' W 001°06'0 0.0
2019-May-17 16:31N 50°49' W 001°06'0 0.0
2019-May-17 16:00N 50°49' W 001°06'0 0.0
2019-May-17 15:31N 50°49' W 001°06'2 4.0
2019-May-17 15:01N 50°47' W 001°06'713.5
2019-May-17 14:30N 50°40' W 001°04'714.7
2019-May-17 14:00N 50°34' W 001°10'6315.8
2019-May-17 10:02N 49°42' W 002°06'016.0
2019-May-17 10:00N 49°42' W 002°07'816.5
2019-May-17 09:30N 49°37' W 002°17'917.6
2019-May-17 09:00N 49°31' W 002°27'5 9.7
2019-May-17 08:30N 49°27' W 002°32'0 0.0
2019-May-17 08:00N 49°27' W 002°32'0 0.0
2019-May-17 07:30N 49°27' W 002°32'0 0.0
2019-May-17 07:00N 49°27' W 002°32'4 8.2
2019-May-17 06:31N 49°24' W 002°28'510.8
2019-May-17 06:01N 49°19' W 002°24'510.6
2019-May-17 05:30N 49°14' W 002°21'611.4
2019-May-17 05:00N 49°10' W 002°16'1 0.6
2019-May-17 02:29N 49°10' W 002°13'816.1
2019-May-17 02:00N 49°16' W 002°21'817.1
2019-May-17 01:30N 49°23' W 002°16'816.4
2019-May-17 01:00N 49°31' W 002°11'815.9
2019-May-17 00:31N 49°38' W 002°06'1016.8
2019-May-16 23:56N 49°48' W 002°03'1615.4
2019-May-16 22:54N 49°58' W 001°44'3416.7
2019-May-16 20:51N 50°28' W 001°18'617.0
2019-May-16 20:30N 50°32' W 001°12'815.8
2019-May-16 20:00N 50°39' W 001°05'714.0
2019-May-16 19:30N 50°46' W 001°05'3 5.7
2019-May-16 19:00N 50°49' W 001°06'0 0.0
2019-May-16 18:30N 50°49' W 001°06'0 0.0
2019-May-16 18:00N 50°49' W 001°06'0 0.0
2019-May-16 17:30N 50°49' W 001°06'0 0.0
2019-May-16 17:00N 50°49' W 001°06'0 0.0
2019-May-16 16:30N 50°49' W 001°06'0 0.0
2019-May-16 16:00N 50°49' W 001°06'1 2.7
2019-May-16 15:30N 50°48' W 001°07'714.9
2019-May-16 15:01N 50°41' W 001°01'816.1
2019-May-16 14:31N 50°34' W 001°07'917.2
2019-May-16 14:00N 50°28' W 001°16'1216.8
2019-May-16 13:16N 50°18' W 001°28'416.4
2019-May-16 13:00N 50°14' W 001°32'816.1
2019-May-16 12:31N 50°08' W 001°39'815.6
2019-May-16 12:01N 50°02' W 001°47'815.7
2019-May-16 11:30N 49°55' W 001°53'815.7
2019-May-16 11:00N 49°48' W 001°58'713.2
2019-May-16 10:30N 49°42' W 002°03'714.7
2019-May-16 10:00N 49°35' W 002°07'816.6
2019-May-16 09:30N 49°30' W 002°17'817.0
2019-May-16 09:01N 49°25' W 002°28'3 6.3
2019-May-16 08:31N 49°27' W 002°32'0 0.0
2019-May-16 08:00N 49°27' W 002°32'0 0.0
2019-May-16 07:31N 49°27' W 002°32'0 0.0
2019-May-16 07:00N 49°27' W 002°32'510.6
2019-May-16 06:30N 49°23' W 002°27'1019.6
2019-May-16 06:00N 49°14' W 002°21'1018.1
2019-May-16 05:29N 49°10' W 002°08'1 0.3
2019-May-16 02:52N 49°11' W 002°07'411.0
2019-May-16 02:29N 49°10' W 002°13'815.1
2019-May-16 01:57N 49°16' W 002°21'614.4
2019-May-16 01:30N 49°22' W 002°18'612.8
2019-May-16 01:00N 49°28' W 002°13'612.3
2019-May-16 00:30N 49°34' W 002°10'611.9
2019-May-16 00:00N 49°39' W 002°07'714.7
2019-May-15 23:30N 49°46' W 002°02'714.7
2019-May-15 23:00N 49°52' W 001°55'815.8
2019-May-15 22:30N 49°58' W 001°48'816.0
2019-May-15 22:00N 50°05' W 001°41'1115.3
2019-May-15 21:17N 50°14' W 001°31'416.2
2019-May-15 21:00N 50°18' W 001°28'1116.0
2019-May-15 20:19N 50°27' W 001°18'515.6
2019-May-15 20:00N 50°31' W 001°14'917.1
2019-May-15 19:30N 50°38' W 001°06'714.6
2019-May-15 19:00N 50°45' W 001°05'4 7.0
2019-May-15 18:31N 50°49' W 001°06'0 0.0
2019-May-15 18:00N 50°49' W 001°06'0 0.0
2019-May-15 17:30N 50°49' W 001°06'0 0.0
2019-May-15 17:01N 50°49' W 001°06'0 0.0
2019-May-15 16:31N 50°49' W 001°06'0 0.0
2019-May-15 16:00N 50°49' W 001°06'0 0.0
2019-May-15 15:31N 50°49' W 001°06'2 4.1
2019-May-15 15:00N 50°47' W 001°06'714.8
2019-May-15 14:31N 50°40' W 001°00'714.5
2019-May-15 14:00N 50°34' W 001°07'713.9
2019-May-15 13:30N 50°28' W 001°13'714.6
2019-May-15 13:00N 50°22' W 001°19'714.4
2019-May-15 12:30N 50°16' W 001°26'815.7
2019-May-15 12:00N 50°10' W 001°32'1615.8
2019-May-15 11:01N 49°58' W 001°48'116.1
2019-May-15 10:59N 49°57' W 001°48'815.9
2019-May-15 10:28N 49°51' W 001°56'715.1
2019-May-15 10:00N 49°45' W 002°02'613.0
2019-May-15 09:30N 49°39' W 002°06'815.7
2019-May-15 09:00N 49°32' W 002°13'917.2
2019-May-15 08:31N 49°27' W 002°24'510.5
2019-May-15 08:00N 49°27' W 002°32'0 0.0
2019-May-15 07:30N 49°27' W 002°32'0 0.7
2019-May-15 07:00N 49°27' W 002°31'816.8
2019-May-15 06:30N 49°20' W 002°25'1119.9
2019-May-15 05:58N 49°11' W 002°17'6 2.0
2019-May-15 02:43N 49°10' W 002°08'417.1
2019-May-15 02:29N 49°10' W 002°14'713.8
2019-May-15 02:00N 49°14' W 002°22'815.6
2019-May-15 01:30N 49°21' W 002°17'918.4
2019-May-15 01:01N 49°30' W 002°12'918.9
2019-May-15 00:31N 49°39' W 002°08'916.7
2019-May-14 23:57N 49°46' W 002°00'914.0
2019-May-14 23:20N 49°54' W 001°53'514.1
2019-May-14 23:00N 49°58' W 001°50'714.1
2019-May-14 22:29N 50°04' W 001°44'1414.1
2019-May-14 21:28N 50°16' W 001°31'1516.0
2019-May-14 20:33N 50°28' W 001°17'116.7
2019-May-14 20:30N 50°29' W 001°17'817.0
2019-May-14 20:00N 50°35' W 001°09'816.4
2019-May-14 19:31N 50°43' W 001°03'612.3
2019-May-14 19:00N 50°49' W 001°06'1 1.1
2019-May-14 18:30N 50°49' W 001°06'0 0.0
2019-May-14 18:00N 50°49' W 001°06'0 0.0
2019-May-14 17:30N 50°49' W 001°06'0 0.0
2019-May-14 17:00N 50°49' W 001°06'0 0.0
2019-May-14 16:30N 50°49' W 001°06'0 0.0
2019-May-14 16:00N 50°49' W 001°06'0 0.0
2019-May-14 15:30N 50°49' W 001°06'2 3.8
2019-May-14 15:00N 50°47' W 001°06'714.6
2019-May-14 14:31N 50°41' W 001°01'917.4
2019-May-14 14:01N 50°33' W 001°08'918.5
2019-May-14 13:30N 50°26' W 001°18'918.0
2019-May-14 13:00N 50°19' W 001°27'917.6
2019-May-14 12:30N 50°12' W 001°35'917.1
2019-May-14 12:00N 50°05' W 001°41'816.6
2019-May-14 11:30N 49°57' W 001°48'816.2
2019-May-14 11:00N 49°51' W 001°56'815.6
2019-May-14 10:30N 49°45' W 002°03'714.6
2019-May-14 10:01N 49°38' W 002°07'815.7
2019-May-14 09:30N 49°32' W 002°14'816.7
2019-May-14 09:00N 49°27' W 002°25'5 9.2
2019-May-14 08:30N 49°27' W 002°32'0 0.0
2019-May-14 08:01N 49°27' W 002°32'0 0.1
2019-May-14 07:30N 49°27' W 002°32'714.4
2019-May-14 07:00N 49°21' W 002°26'1019.1
2019-May-14 06:30N 49°12' W 002°20'915.9
2019-May-14 05:58N 49°11' W 002°07'1 0.2
2019-May-14 02:46N 49°10' W 002°07'615.9
2019-May-14 02:25N 49°10' W 002°16'614.6
2019-May-14 02:00N 49°15' W 002°22'714.4
2019-May-14 01:31N 49°21' W 002°18'815.1
2019-May-14 01:01N 49°29' W 002°14'917.4
2019-May-14 00:30N 49°37' W 002°08'816.9
2019-May-14 00:00N 49°44' W 002°03'916.9
2019-May-13 23:29N 49°52' W 001°55'815.7
2019-May-13 23:00N 49°58' W 001°50'713.7
2019-May-13 22:28N 50°04' W 001°43'914.1
2019-May-13 21:50N 50°11' W 001°35'613.8
2019-May-13 21:24N 50°16' W 001°30'614.0
2019-May-13 20:58N 50°21' W 001°24'813.9
2019-May-13 20:22N 50°28' W 001°17'514.4
2019-May-13 20:00N 50°32' W 001°12'714.6
2019-May-13 19:31N 50°38' W 001°06'713.8
2019-May-13 19:01N 50°45' W 001°05'3 6.7
2019-May-13 18:30N 50°49' W 001°06'0 0.2
2019-May-13 18:01N 50°49' W 001°06'0 0.0
2019-May-13 17:30N 50°49' W 001°06'0 0.0
2019-May-13 17:00N 50°49' W 001°06'0 0.0
2019-May-13 16:30N 50°49' W 001°06'0 0.0
2019-May-13 16:00N 50°49' W 001°06'0 0.0
2019-May-13 15:30N 50°49' W 001°06'2 3.9
2019-May-13 15:01N 50°47' W 001°06'713.7
2019-May-13 14:31N 50°40' W 001°04'816.1
2019-May-13 14:01N 50°33' W 001°10'917.2
2019-May-13 13:30N 50°26' W 001°19'1517.7
2019-May-13 12:40N 50°15' W 001°33'317.6
2019-May-13 12:30N 50°12' W 001°33'2515.1
2019-May-13 10:49N 49°51' W 001°55'1112.7
2019-May-13 09:58N 49°42' W 002°04'612.3
2019-May-13 09:30N 49°37' W 002°07'612.3
2019-May-13 09:00N 49°32' W 002°14'713.2
2019-May-13 08:30N 49°28' W 002°22'612.2
2019-May-13 08:00N 49°27' W 002°31'0 0.8
2019-May-13 07:31N 49°27' W 002°32'0 0.0
2019-May-13 07:00N 49°27' W 002°32'5 9.2
2019-May-13 06:30N 49°23' W 002°28'510.7
2019-May-13 06:00N 49°19' W 002°25'4 9.0
2019-May-13 05:31N 49°15' W 002°22'812.6
2019-May-13 04:54N 49°10' W 002°13'4 1.9
2019-May-13 02:56N 49°11' W 002°07'510.8
2019-May-13 02:30N 49°10' W 002°14'714.1
2019-May-13 02:00N 49°15' W 002°21'612.8
2019-May-13 01:30N 49°21' W 002°18'4 8.8
2019-May-13 01:00N 49°25' W 002°15'5 9.9
2019-May-13 00:30N 49°30' W 002°12'510.3
2019-May-13 00:00N 49°34' W 002°09'6 9.8
2019-May-12 23:25N 49°40' W 002°06'4 9.8
2019-May-12 23:00N 49°43' W 002°03'1311.7
2019-May-12 21:55N 49°54' W 001°52'2312.8
2019-May-12 20:07N 50°14' W 001°34'213.8
2019-May-12 19:56N 50°16' W 001°31'715.2
2019-May-12 19:30N 50°21' W 001°25'814.4
2019-May-12 18:56N 50°28' W 001°17'819.5
2019-May-12 18:31N 50°35' W 001°10'918.7
2019-May-12 18:00N 50°43' W 001°03'611.5
2019-May-12 17:30N 50°48' W 001°07'1 2.2
2019-May-12 17:00N 50°49' W 001°06'0 0.0
2019-May-12 16:30N 50°49' W 001°06'0 0.0
2019-May-12 16:00N 50°49' W 001°06'0 0.0
2019-May-12 15:30N 50°49' W 001°06'0 0.0
2019-May-12 15:00N 50°49' W 001°06'0 0.0
2019-May-12 14:30N 50°49' W 001°06'0 0.0
2019-May-12 14:00N 50°49' W 001°06'0 0.0
2019-May-12 13:30N 50°49' W 001°06'0 0.0
2019-May-12 13:00N 50°49' W 001°06'0 0.0
2019-May-12 12:30N 50°49' W 001°06'0 0.0
2019-May-12 12:00N 50°49' W 001°06'0 0.0
2019-May-12 11:30N 50°49' W 001°06'0 0.0
2019-May-12 11:00N 50°49' W 001°06'0 0.0
2019-May-12 10:30N 50°49' W 001°06'0 0.0
2019-May-12 10:00N 50°49' W 001°06'0 0.0
2019-May-12 09:30N 50°49' W 001°06'0 0.0
2019-May-12 09:00N 50°49' W 001°06'0 0.0
2019-May-12 08:30N 50°49' W 001°06'0 0.0
2019-May-12 08:00N 50°49' W 001°06'0 0.0
2019-May-12 07:30N 50°49' W 001°06'0 0.0
2019-May-12 07:00N 50°49' W 001°06'0 0.0
2019-May-12 06:30N 50°49' W 001°06'0 0.5
2019-May-12 06:01N 50°49' W 001°06'4 8.8
2019-May-12 05:31N 50°44' W 001°05'815.0
2019-May-12 05:00N 50°37' W 001°07'713.9
2019-May-12 04:30N 50°32' W 001°14'714.4
2019-May-12 04:01N 50°26' W 001°21'714.0
2019-May-12 03:30N 50°20' W 001°28'815.3
2019-May-12 03:00N 50°14' W 001°35'815.2
2019-May-12 02:31N 50°07' W 001°39'815.1
2019-May-12 02:00N 50°01' W 001°45'816.7
2019-May-12 01:31N 49°54' W 001°52'1217.3
2019-May-12 00:48N 49°44' W 002°03'716.4
2019-May-12 00:25N 49°38' W 002°07'1115.0
2019-May-11 23:39N 49°27' W 002°14'215.1
2019-May-11 23:30N 49°25' W 002°15'714.9
2019-May-11 23:00N 49°18' W 002°19'713.6
2019-May-11 22:30N 49°11' W 002°19'8 5.7
2019-May-11 21:10N 49°11' W 002°07'513.2
2019-May-11 20:48N 49°07' W 002°03'6 6.8
2019-May-11 19:56N 49°02' W 001°57'2 3.0
2019-May-11 19:16N 49°01' W 001°55'7 4.2
2019-May-11 17:40N 48°55' W 001°58'11 1.3
2019-May-11 09:16N 49°06' W 002°00'6 2.3
2019-May-11 06:27N 49°10' W 002°07'817.1
2019-May-11 06:00N 49°10' W 002°19'3 6.6
2019-May-11 05:29N 49°13' W 002°22'3 7.0
2019-May-11 05:00N 49°16' W 002°24'3 6.5
2019-May-11 04:29N 49°19' W 002°26'3 6.2
2019-May-11 04:00N 49°22' W 002°27'3 5.9
2019-May-11 03:30N 49°25' W 002°29'3 6.6
2019-May-11 03:00N 49°27' W 002°32'0 0.0
2019-May-11 02:30N 49°27' W 002°32'0 0.0
2019-May-11 02:00N 49°27' W 002°32'4 7.5
2019-May-11 01:30N 49°26' W 002°26'714.5
2019-May-11 01:00N 49°31' W 002°18'714.7
2019-May-11 00:30N 49°35' W 002°09'915.2
2019-May-10 23:56N 49°43' W 002°04'613.9
2019-May-10 23:31N 49°48' W 001°58'714.9
2019-May-10 23:01N 49°54' W 001°50'815.7
2019-May-10 22:30N 50°00' W 001°43'815.6
2019-May-10 22:01N 50°06' W 001°37'815.3
2019-May-10 21:30N 50°13' W 001°31'714.6
2019-May-10 21:00N 50°20' W 001°26'714.2
2019-May-10 20:30N 50°26' W 001°21'713.6
2019-May-10 19:59N 50°32' W 001°14'714.4
2019-May-10 19:30N 50°37' W 001°07'815.6
2019-May-10 19:00N 50°45' W 001°05'4 8.1
2019-May-10 18:30N 50°49' W 001°06'0 0.0
2019-May-10 18:00N 50°49' W 001°06'0 0.0
2019-May-10 17:30N 50°49' W 001°06'0 0.0
2019-May-10 17:00N 50°49' W 001°06'0 0.0
2019-May-10 16:30N 50°49' W 001°06'  
Track history (hours):
 
Tides and Currents Weather Stations Pressure Air Temp Water Temp Dewpoint Dewpoint Depression Visibility Wind Speed Wind Dir Waves Ship Positions

Commodore Goodwill

Operator: Condor Marine Services

Last reported at 2019-May-20 16:00 UTC. Time now 2019-May-20 16:30 UTC.
Position N 50°49' W 001°06'.

Length 126 m; draft 5.2 m.

Type: Ship (hazmat cat C). MMSI: 309536000.

Date/timePositionNaut miles runAvg speedWind from/ knotsBaromVisibWave heightAir tempDewpointWater temp
2019-May-20 16:00N 50°49' W 001°06'0 0.0
2019-May-20 15:30N 50°49' W 001°06'2 3.7
2019-May-20 15:01N 50°47' W 001°06'713.7
2019-May-20 14:31N 50°40' W 001°04'714.0
2019-May-20 14:00N 50°35' W 001°10'612.2
2019-May-20 13:30N 50°30' W 001°16'812.9
2019-May-20 12:55N 50°23' W 001°23'2114.3
2019-May-20 11:27N 50°05' W 001°39'2115.7
2019-May-20 10:05N 49°48' W 001°58'1217.4
2019-May-20 09:24N 49°37' W 002°07'615.8
2019-May-20 09:00N 49°32' W 002°11'918.2
2019-May-20 08:30N 49°23' W 002°16'918.2
2019-May-20 08:00N 49°15' W 002°21'1013.5
2019-May-20 07:15N 49°11' W 002°07'0 0.0
2019-May-20 04:55N 49°11' W 002°07'714.7
2019-May-20 04:28N 49°10' W 002°17'713.1
2019-May-20 03:58N 49°16' W 002°23'613.5
2019-May-20 03:30N 49°21' W 002°26'714.0
2019-May-20 03:00N 49°27' W 002°31'0 0.3
2019-May-20 02:30N 49°27' W 002°32'0 0.0
2019-May-20 02:00N 49°27' W 002°32'4 7.8
2019-May-20 01:30N 49°26' W 002°26'714.5
2019-May-20 01:00N 49°31' W 002°17'611.7
2019-May-20 00:30N 49°34' W 002°09'611.9
2019-May-19 23:59N 49°40' W 002°06'2512.7
2019-May-19 22:00N 50°02' W 001°47'3712.5
2019-May-19 19:03N 50°31' W 001°13'112.5
2019-May-19 19:00N 50°32' W 001°12'712.9
2019-May-19 18:30N 50°37' W 001°07'612.5
2019-May-19 18:01N 50°43' W 001°03'611.7
2019-May-19 17:30N 50°49' W 001°07'1 1.2
2019-May-19 17:00N 50°49' W 001°06'0 0.0
2019-May-19 16:30N 50°49' W 001°06'0 0.0
2019-May-19 16:00N 50°49' W 001°06'0 0.0
2019-May-19 15:30N 50°49' W 001°06'0 0.3
2019-May-19 15:00N 50°49' W 001°06'0 0.1
2019-May-19 14:30N 50°49' W 001°06'0 0.0
2019-May-19 14:00N 50°49' W 001°06'0 0.0
2019-May-19 13:30N 50°49' W 001°06'0 0.0
2019-May-19 13:00N 50°49' W 001°06'0 0.0
2019-May-19 12:30N 50°49' W 001°06'0 0.0
2019-May-19 12:00N 50°49' W 001°06'0 0.0
2019-May-19 11:30N 50°49' W 001°06'0 0.0
2019-May-19 11:00N 50°49' W 001°06'0 0.0
2019-May-19 10:30N 50°49' W 001°06'0 0.0
2019-May-19 10:00N 50°49' W 001°06'0 0.0
2019-May-19 09:30N 50°49' W 001°06'0 0.0
2019-May-19 09:00N 50°49' W 001°06'0 0.0
2019-May-19 08:30N 50°49' W 001°06'0 0.0
2019-May-19 08:00N 50°49' W 001°06'0 0.0
2019-May-19 07:30N 50°49' W 001°06'2 3.6
2019-May-19 07:00N 50°47' W 001°06'714.1
2019-May-19 06:31N 50°40' W 001°04'815.3
2019-May-19 06:00N 50°33' W 001°11'815.1
2019-May-19 05:30N 50°27' W 001°17'5112.3
2019-May-19 01:21N 49°45' W 002°02'2 5.9
2019-May-19 01:01N 49°43' W 002°02'4 7.7
2019-May-19 00:29N 49°39' W 002°05'4 9.1
2019-May-19 00:00N 49°35' W 002°07'5 9.4
2019-May-18 23:30N 49°31' W 002°09'1 2.3
2019-May-18 23:00N 49°31' W 002°08'4 8.6
2019-May-18 22:30N 49°34' W 002°05'1 2.8
2019-May-18 22:00N 49°36' W 002°05'4 7.7
2019-May-18 21:30N 49°34' W 002°09'4 8.9
2019-May-18 21:00N 49°30' W 002°13'5 9.9
2019-May-18 20:30N 49°25' W 002°15'5 9.6
2019-May-18 20:00N 49°20' W 002°18'5 9.7
2019-May-18 19:30N 49°16' W 002°21'4 8.9
2019-May-18 19:00N 49°12' W 002°19'811.9
2019-May-18 18:20N 49°10' W 002°08'1 0.0
2019-May-18 05:15N 49°10' W 002°07'1 2.9
2019-May-18 04:55N 49°10' W 002°08'716.2
2019-May-18 04:30N 49°10' W 002°18'815.3
2019-May-18 04:00N 49°17' W 002°24'713.5
2019-May-18 03:30N 49°23' W 002°27'510.2
2019-May-18 03:00N 49°27' W 002°32'0 0.0
2019-May-18 02:30N 49°27' W 002°32'0 0.0
2019-May-18 02:01N 49°27' W 002°32'4 7.9
2019-May-18 01:31N 49°26' W 002°26'917.5
2019-May-18 01:00N 49°31' W 002°15'814.9
2019-May-18 00:28N 49°37' W 002°06'1017.3
2019-May-17 23:52N 49°47' W 002°01'5315.6
2019-May-17 20:29N 50°29' W 001°12'715.1
2019-May-17 20:00N 50°36' W 001°08'714.7
2019-May-17 19:30N 50°43' W 001°03'611.8
2019-May-17 19:01N 50°48' W 001°07'1 1.9
2019-May-17 18:31N 50°49' W 001°06'0 0.0
2019-May-17 18:00N 50°49' W 001°06'0 0.0
2019-May-17 17:31N 50°49' W 001°06'0 0.0
2019-May-17 17:00N 50°49' W 001°06'0 0.0
2019-May-17 16:31N 50°49' W 001°06'0 0.0
2019-May-17 16:00N 50°49' W 001°06'0 0.0
2019-May-17 15:31N 50°49' W 001°06'2 4.0
2019-May-17 15:01N 50°47' W 001°06'713.5
2019-May-17 14:30N 50°40' W 001°04'714.7
2019-May-17 14:00N 50°34' W 001°10'6315.8
2019-May-17 10:02N 49°42' W 002°06'016.0
2019-May-17 10:00N 49°42' W 002°07'816.5
2019-May-17 09:30N 49°37' W 002°17'917.6
2019-May-17 09:00N 49°31' W 002°27'5 9.7
2019-May-17 08:30N 49°27' W 002°32'0 0.0
2019-May-17 08:00N 49°27' W 002°32'0 0.0
2019-May-17 07:30N 49°27' W 002°32'0 0.0
2019-May-17 07:00N 49°27' W 002°32'4 8.2
2019-May-17 06:31N 49°24' W 002°28'510.8
2019-May-17 06:01N 49°19' W 002°24'510.6
2019-May-17 05:30N 49°14' W 002°21'611.4
2019-May-17 05:00N 49°10' W 002°16'1 0.6
2019-May-17 02:29N 49°10' W 002°13'816.1
2019-May-17 02:00N 49°16' W 002°21'817.1
2019-May-17 01:30N 49°23' W 002°16'816.4
2019-May-17 01:00N 49°31' W 002°11'815.9
2019-May-17 00:31N 49°38' W 002°06'1016.8
2019-May-16 23:56N 49°48' W 002°03'1615.4
2019-May-16 22:54N 49°58' W 001°44'3416.7
2019-May-16 20:51N 50°28' W 001°18'617.0
2019-May-16 20:30N 50°32' W 001°12'815.8
2019-May-16 20:00N 50°39' W 001°05'714.0
2019-May-16 19:30N 50°46' W 001°05'3 5.7
2019-May-16 19:00N 50°49' W 001°06'0 0.0
2019-May-16 18:30N 50°49' W 001°06'0 0.0
2019-May-16 18:00N 50°49' W 001°06'0 0.0
2019-May-16 17:30N 50°49' W 001°06'0 0.0
2019-May-16 17:00N 50°49' W 001°06'0 0.0
2019-May-16 16:30N 50°49' W 001°06'0 0.0
2019-May-16 16:00N 50°49' W 001°06'1 2.7
2019-May-16 15:30N 50°48' W 001°07'714.9
2019-May-16 15:01N 50°41' W 001°01'816.1
2019-May-16 14:31N 50°34' W 001°07'917.2
2019-May-16 14:00N 50°28' W 001°16'1216.8
2019-May-16 13:16N 50°18' W 001°28'416.4
2019-May-16 13:00N 50°14' W 001°32'816.1
2019-May-16 12:31N 50°08' W 001°39'815.6
2019-May-16 12:01N 50°02' W 001°47'815.7
2019-May-16 11:30N 49°55' W 001°53'815.7
2019-May-16 11:00N 49°48' W 001°58'713.2
2019-May-16 10:30N 49°42' W 002°03'714.7
2019-May-16 10:00N 49°35' W 002°07'816.6
2019-May-16 09:30N 49°30' W 002°17'817.0
2019-May-16 09:01N 49°25' W 002°28'3 6.3
2019-May-16 08:31N 49°27' W 002°32'0 0.0
2019-May-16 08:00N 49°27' W 002°32'0 0.0
2019-May-16 07:31N 49°27' W 002°32'0 0.0
2019-May-16 07:00N 49°27' W 002°32'510.6
2019-May-16 06:30N 49°23' W 002°27'1019.6
2019-May-16 06:00N 49°14' W 002°21'1018.1
2019-May-16 05:29N 49°10' W 002°08'1 0.3
2019-May-16 02:52N 49°11' W 002°07'411.0
2019-May-16 02:29N 49°10' W 002°13'815.1
2019-May-16 01:57N 49°16' W 002°21'614.4
2019-May-16 01:30N 49°22' W 002°18'612.8
2019-May-16 01:00N 49°28' W 002°13'612.3
2019-May-16 00:30N 49°34' W 002°10'611.9
2019-May-16 00:00N 49°39' W 002°07'714.7
2019-May-15 23:30N 49°46' W 002°02'714.7
2019-May-15 23:00N 49°52' W 001°55'815.8
2019-May-15 22:30N 49°58' W 001°48'816.0
2019-May-15 22:00N 50°05' W 001°41'1115.3
2019-May-15 21:17N 50°14' W 001°31'416.2
2019-May-15 21:00N 50°18' W 001°28'1116.0
2019-May-15 20:19N 50°27' W 001°18'515.6
2019-May-15 20:00N 50°31' W 001°14'917.1
2019-May-15 19:30N 50°38' W 001°06'714.6
2019-May-15 19:00N 50°45' W 001°05'4 7.0
2019-May-15 18:31N 50°49' W 001°06'0 0.0
2019-May-15 18:00N 50°49' W 001°06'0 0.0
2019-May-15 17:30N 50°49' W 001°06'0 0.0
2019-May-15 17:01N 50°49' W 001°06'0 0.0
2019-May-15 16:31N 50°49' W 001°06'0 0.0
2019-May-15 16:00N 50°49' W 001°06'0 0.0
2019-May-15 15:31N 50°49' W 001°06'2 4.1
2019-May-15 15:00N 50°47' W 001°06'714.8
2019-May-15 14:31N 50°40' W 001°00'714.5
2019-May-15 14:00N 50°34' W 001°07'713.9
2019-May-15 13:30N 50°28' W 001°13'714.6
2019-May-15 13:00N 50°22' W 001°19'714.4
2019-May-15 12:30N 50°16' W 001°26'815.7
2019-May-15 12:00N 50°10' W 001°32'1615.8
2019-May-15 11:01N 49°58' W 001°48'116.1
2019-May-15 10:59N 49°57' W 001°48'815.9
2019-May-15 10:28N 49°51' W 001°56'715.1
2019-May-15 10:00N 49°45' W 002°02'613.0
2019-May-15 09:30N 49°39' W 002°06'815.7
2019-May-15 09:00N 49°32' W 002°13'917.2
2019-May-15 08:31N 49°27' W 002°24'510.5
2019-May-15 08:00N 49°27' W 002°32'0 0.0
2019-May-15 07:30N 49°27' W 002°32'0 0.7
2019-May-15 07:00N 49°27' W 002°31'816.8
2019-May-15 06:30N 49°20' W 002°25'1119.9
2019-May-15 05:58N 49°11' W 002°17'6 2.0
2019-May-15 02:43N 49°10' W 002°08'417.1
2019-May-15 02:29N 49°10' W 002°14'713.8
2019-May-15 02:00N 49°14' W 002°22'815.6
2019-May-15 01:30N 49°21' W 002°17'918.4
2019-May-15 01:01N 49°30' W 002°12'918.9
2019-May-15 00:31N 49°39' W 002°08'916.7
2019-May-14 23:57N 49°46' W 002°00'914.0
2019-May-14 23:20N 49°54' W 001°53'514.1
2019-May-14 23:00N 49°58' W 001°50'714.1
2019-May-14 22:29N 50°04' W 001°44'1414.1
2019-May-14 21:28N 50°16' W 001°31'1516.0
2019-May-14 20:33N 50°28' W 001°17'116.7
2019-May-14 20:30N 50°29' W 001°17'817.0
2019-May-14 20:00N 50°35' W 001°09'816.4
2019-May-14 19:31N 50°43' W 001°03'612.3
2019-May-14 19:00N 50°49' W 001°06'1 1.1
2019-May-14 18:30N 50°49' W 001°06'0 0.0
2019-May-14 18:00N 50°49' W 001°06'0 0.0
2019-May-14 17:30N 50°49' W 001°06'0 0.0
2019-May-14 17:00N 50°49' W 001°06'0 0.0
2019-May-14 16:30N 50°49' W 001°06'0 0.0
2019-May-14 16:00N 50°49' W 001°06'0 0.0
2019-May-14 15:30N 50°49' W 001°06'2 3.8
2019-May-14 15:00N 50°47' W 001°06'714.6
2019-May-14 14:31N 50°41' W 001°01'917.4
2019-May-14 14:01N 50°33' W 001°08'918.5
2019-May-14 13:30N 50°26' W 001°18'918.0
2019-May-14 13:00N 50°19' W 001°27'917.6
2019-May-14 12:30N 50°12' W 001°35'917.1
2019-May-14 12:00N 50°05' W 001°41'816.6
2019-May-14 11:30N 49°57' W 001°48'816.2
2019-May-14 11:00N 49°51' W 001°56'815.6
2019-May-14 10:30N 49°45' W 002°03'714.6
2019-May-14 10:01N 49°38' W 002°07'815.7
2019-May-14 09:30N 49°32' W 002°14'816.7
2019-May-14 09:00N 49°27' W 002°25'5 9.2
2019-May-14 08:30N 49°27' W 002°32'0 0.0
2019-May-14 08:01N 49°27' W 002°32'0 0.1
2019-May-14 07:30N 49°27' W 002°32'714.4
2019-May-14 07:00N 49°21' W 002°26'1019.1
2019-May-14 06:30N 49°12' W 002°20'915.9
2019-May-14 05:58N 49°11' W 002°07'1 0.2
2019-May-14 02:46N 49°10' W 002°07'615.9
2019-May-14 02:25N 49°10' W 002°16'614.6
2019-May-14 02:00N 49°15' W 002°22'714.4
2019-May-14 01:31N 49°21' W 002°18'815.1
2019-May-14 01:01N 49°29' W 002°14'917.4
2019-May-14 00:30N 49°37' W 002°08'816.9
2019-May-14 00:00N 49°44' W 002°03'916.9
2019-May-13 23:29N 49°52' W 001°55'815.7
2019-May-13 23:00N 49°58' W 001°50'713.7
2019-May-13 22:28N 50°04' W 001°43'914.1
2019-May-13 21:50N 50°11' W 001°35'613.8
2019-May-13 21:24N 50°16' W 001°30'614.0
2019-May-13 20:58N 50°21' W 001°24'813.9
2019-May-13 20:22N 50°28' W 001°17'514.4
2019-May-13 20:00N 50°32' W 001°12'714.6
2019-May-13 19:31N 50°38' W 001°06'713.8
2019-May-13 19:01N 50°45' W 001°05'3 6.7
2019-May-13 18:30N 50°49' W 001°06'0 0.2
2019-May-13 18:01N 50°49' W 001°06'0 0.0
2019-May-13 17:30N 50°49' W 001°06'0 0.0
2019-May-13 17:00N 50°49' W 001°06'0 0.0
2019-May-13 16:30N 50°49' W 001°06'0 0.0
2019-May-13 16:00N 50°49' W 001°06'0 0.0
2019-May-13 15:30N 50°49' W 001°06'2 3.9
2019-May-13 15:01N 50°47' W 001°06'713.7
2019-May-13 14:31N 50°40' W 001°04'816.1
2019-May-13 14:01N 50°33' W 001°10'917.2
2019-May-13 13:30N 50°26' W 001°19'1517.7
2019-May-13 12:40N 50°15' W 001°33'317.6
2019-May-13 12:30N 50°12' W 001°33'2515.1
2019-May-13 10:49N 49°51' W 001°55'1112.7
2019-May-13 09:58N 49°42' W 002°04'612.3
2019-May-13 09:30N 49°37' W 002°07'612.3
2019-May-13 09:00N 49°32' W 002°14'713.2
2019-May-13 08:30N 49°28' W 002°22'612.2
2019-May-13 08:00N 49°27' W 002°31'0 0.8
2019-May-13 07:31N 49°27' W 002°32'0 0.0
2019-May-13 07:00N 49°27' W 002°32'5 9.2
2019-May-13 06:30N 49°23' W 002°28'510.7
2019-May-13 06:00N 49°19' W 002°25'4 9.0
2019-May-13 05:31N 49°15' W 002°22'812.6
2019-May-13 04:54N 49°10' W 002°13'4 1.9
2019-May-13 02:56N 49°11' W 002°07'510.8
2019-May-13 02:30N 49°10' W 002°14'714.1
2019-May-13 02:00N 49°15' W 002°21'612.8
2019-May-13 01:30N 49°21' W 002°18'4 8.8
2019-May-13 01:00N 49°25' W 002°15'5 9.9
2019-May-13 00:30N 49°30' W 002°12'510.3
2019-May-13 00:00N 49°34' W 002°09'6 9.8
2019-May-12 23:25N 49°40' W 002°06'4 9.8
2019-May-12 23:00N 49°43' W 002°03'1311.7
2019-May-12 21:55N 49°54' W 001°52'2312.8
2019-May-12 20:07N 50°14' W 001°34'213.8
2019-May-12 19:56N 50°16' W 001°31'715.2
2019-May-12 19:30N 50°21' W 001°25'814.4
2019-May-12 18:56N 50°28' W 001°17'819.5
2019-May-12 18:31N 50°35' W 001°10'918.7
2019-May-12 18:00N 50°43' W 001°03'611.5
2019-May-12 17:30N 50°48' W 001°07'1 2.2
2019-May-12 17:00N 50°49' W 001°06'0 0.0
2019-May-12 16:30N 50°49' W 001°06'0 0.0
2019-May-12 16:00N 50°49' W 001°06'0 0.0
2019-May-12 15:30N 50°49' W 001°06'0 0.0
2019-May-12 15:00N 50°49' W 001°06'0 0.0
2019-May-12 14:30N 50°49' W 001°06'0 0.0
2019-May-12 14:00N 50°49' W 001°06'0 0.0
2019-May-12 13:30N 50°49' W 001°06'0 0.0
2019-May-12 13:00N 50°49' W 001°06'0 0.0
2019-May-12 12:30N 50°49' W 001°06'0 0.0
2019-May-12 12:00N 50°49' W 001°06'0 0.0
2019-May-12 11:30N 50°49' W 001°06'0 0.0
2019-May-12 11:00N 50°49' W 001°06'0 0.0
2019-May-12 10:30N 50°49' W 001°06'0 0.0
2019-May-12 10:00N 50°49' W 001°06'0 0.0
2019-May-12 09:30N 50°49' W 001°06'0 0.0
2019-May-12 09:00N 50°49' W 001°06'0 0.0
2019-May-12 08:30N 50°49' W 001°06'0 0.0
2019-May-12 08:00N 50°49' W 001°06'0 0.0
2019-May-12 07:30N 50°49' W 001°06'0 0.0
2019-May-12 07:00N 50°49' W 001°06'0 0.0
2019-May-12 06:30N 50°49' W 001°06'0 0.5
2019-May-12 06:01N 50°49' W 001°06'4 8.8
2019-May-12 05:31N 50°44' W 001°05'815.0
2019-May-12 05:00N 50°37' W 001°07'713.9
2019-May-12 04:30N 50°32' W 001°14'714.4
2019-May-12 04:01N 50°26' W 001°21'714.0
2019-May-12 03:30N 50°20' W 001°28'815.3
2019-May-12 03:00N 50°14' W 001°35'815.2
2019-May-12 02:31N 50°07' W 001°39'815.1
2019-May-12 02:00N 50°01' W 001°45'816.7
2019-May-12 01:31N 49°54' W 001°52'1217.3
2019-May-12 00:48N 49°44' W 002°03'716.4
2019-May-12 00:25N 49°38' W 002°07'1115.0
2019-May-11 23:39N 49°27' W 002°14'215.1
2019-May-11 23:30N 49°25' W 002°15'714.9
2019-May-11 23:00N 49°18' W 002°19'713.6
2019-May-11 22:30N 49°11' W 002°19'8 5.7
2019-May-11 21:10N 49°11' W 002°07'513.2
2019-May-11 20:48N 49°07' W 002°03'6 6.8
2019-May-11 19:56N 49°02' W 001°57'2 3.0
2019-May-11 19:16N 49°01' W 001°55'7 4.2
2019-May-11 17:40N 48°55' W 001°58'11 1.3
2019-May-11 09:16N 49°06' W 002°00'6 2.3
2019-May-11 06:27N 49°10' W 002°07'817.1
2019-May-11 06:00N 49°10' W 002°19'3 6.6
2019-May-11 05:29N 49°13' W 002°22'3 7.0
2019-May-11 05:00N 49°16' W 002°24'3 6.5
2019-May-11 04:29N 49°19' W 002°26'3 6.2
2019-May-11 04:00N 49°22' W 002°27'3 5.9
2019-May-11 03:30N 49°25' W 002°29'3 6.6
2019-May-11 03:00N 49°27' W 002°32'0 0.0
2019-May-11 02:30N 49°27' W 002°32'0 0.0
2019-May-11 02:00N 49°27' W 002°32'4 7.5
2019-May-11 01:30N 49°26' W 002°26'714.5
2019-May-11 01:00N 49°31' W 002°18'714.7
2019-May-11 00:30N 49°35' W 002°09'915.2
2019-May-10 23:56N 49°43' W 002°04'613.9
2019-May-10 23:31N 49°48' W 001°58'714.9
2019-May-10 23:01N 49°54' W 001°50'815.7
2019-May-10 22:30N 50°00' W 001°43'815.6
2019-May-10 22:01N 50°06' W 001°37'815.3
2019-May-10 21:30N 50°13' W 001°31'714.6
2019-May-10 21:00N 50°20' W 001°26'714.2
2019-May-10 20:30N 50°26' W 001°21'713.6
2019-May-10 19:59N 50°32' W 001°14'714.4
2019-May-10 19:30N 50°37' W 001°07'815.6
2019-May-10 19:00N 50°45' W 001°05'4 8.1
2019-May-10 18:30N 50°49' W 001°06'0 0.0
2019-May-10 18:00N 50°49' W 001°06'0 0.0
2019-May-10 17:30N 50°49' W 001°06'0 0.0
2019-May-10 17:00N 50°49' W 001°06'0 0.0
2019-May-10 16:30N 50°49' W 001°06'  

Dump ship's entire track history